createdAt,value
2018-03-31T00:00:55.208Z,19.37
2018-03-31T00:03:23.101Z,20.30
2018-03-31T00:05:50.796Z,19.40
2018-03-31T00:08:18.433Z,19.47
2018-03-31T00:10:46.269Z,18.03
2018-03-31T00:13:14.250Z,19.27
2018-03-31T00:15:42.152Z,18.73
2018-03-31T00:18:09.758Z,21.57
2018-03-31T00:20:37.430Z,20.80
2018-03-31T00:23:05.238Z,19.17
2018-03-31T00:25:33.231Z,22.23
2018-03-31T00:28:01.207Z,23.92
2018-03-31T00:30:29.104Z,28.77
2018-03-31T00:32:56.695Z,29.50
2018-03-31T00:35:24.368Z,28.03
2018-03-31T00:37:52.168Z,25.67
2018-03-31T00:40:20.065Z,25.08
2018-03-31T00:42:47.782Z,22.53
2018-03-31T00:45:15.396Z,20.80
2018-03-31T00:47:43.280Z,18.60
2018-03-31T00:50:11.246Z,19.27
2018-03-31T00:52:39.259Z,20.07
2018-03-31T00:55:07.524Z,21.92
2018-03-31T00:57:35.537Z,20.77
2018-03-31T01:00:03.651Z,20.10
2018-03-31T01:02:32.915Z,20.86
2018-03-31T01:05:02.099Z,19.60
2018-03-31T01:07:30.961Z,18.30
2018-03-31T01:09:58.581Z,18.47
2018-03-31T01:12:26.604Z,20.48
2018-03-31T01:14:54.825Z,21.33
2018-03-31T01:17:22.421Z,20.70
2018-03-31T01:19:50.416Z,20.53
2018-03-31T01:22:18.344Z,20.00
2018-03-31T01:24:46.253Z,19.60
2018-03-31T01:27:14.203Z,19.58
2018-03-31T01:29:41.804Z,19.17
2018-03-31T01:32:09.441Z,20.47
2018-03-31T01:34:37.366Z,19.30
2018-03-31T01:37:05.236Z,19.80
2018-03-31T01:39:33.214Z,19.95
2018-03-31T01:42:01.168Z,19.87
2018-03-31T01:44:29.090Z,20.75
2018-03-31T01:46:56.702Z,18.33
2018-03-31T01:49:24.525Z,19.57
2018-03-31T01:51:52.939Z,19.00
2018-03-31T01:54:20.567Z,19.07
2018-03-31T01:56:48.321Z,18.90
2018-03-31T01:59:16.240Z,18.70
2018-03-31T02:01:44.121Z,19.73
2018-03-31T02:04:11.784Z,18.73
2018-03-31T02:06:39.723Z,19.10
2018-03-31T02:09:07.329Z,18.93
2018-03-31T02:11:35.270Z,19.23
2018-03-31T02:14:03.181Z,19.25
2018-03-31T02:16:31.123Z,18.05
2018-03-31T02:18:59.097Z,20.12
2018-03-31T02:21:26.720Z,20.33
2018-03-31T02:23:54.336Z,18.43
2018-03-31T02:26:22.413Z,18.17
2018-03-31T02:28:50.099Z,18.53
2018-03-31T02:31:18.071Z,19.65
2018-03-31T02:33:45.797Z,19.50
2018-03-31T02:36:13.407Z,19.00
2018-03-31T02:38:41.263Z,17.93
2018-03-31T02:41:09.307Z,18.70
2018-03-31T02:43:37.166Z,17.40
2018-03-31T02:46:05.113Z,17.62
2018-03-31T02:48:33.077Z,17.60
2018-03-31T02:51:00.985Z,20.05
2018-03-31T02:53:28.910Z,17.35
2018-03-31T02:55:56.909Z,17.40
2018-03-31T02:58:24.807Z,17.27
2018-03-31T03:00:52.834Z,17.80
2018-03-31T03:03:20.792Z,17.40
2018-03-31T03:05:49.827Z,17.28
2018-03-31T03:08:19.095Z,17.30
2018-03-31T03:10:48.397Z,18.25
2018-03-31T03:13:16.008Z,17.57
2018-03-31T03:15:44.231Z,17.85
2018-03-31T03:18:11.900Z,17.90
2018-03-31T03:20:39.510Z,17.73
2018-03-31T03:23:07.426Z,19.33
2018-03-31T03:25:35.359Z,18.67
2018-03-31T03:28:03.353Z,17.47
2018-03-31T03:30:31.278Z,16.98
2018-03-31T03:32:58.940Z,17.17
2018-03-31T03:35:26.537Z,17.20
2018-03-31T03:37:54.258Z,17.27
2018-03-31T03:40:22.220Z,17.05
2018-03-31T03:42:50.124Z,17.77
2018-03-31T03:45:18.084Z,17.83
2018-03-31T03:47:45.737Z,18.00
2018-03-31T03:50:13.629Z,17.90
2018-03-31T03:52:41.295Z,18.17
2018-03-31T03:55:09.288Z,18.63
2018-03-31T03:57:37.180Z,17.12
2018-03-31T04:00:04.792Z,17.27
2018-03-31T04:02:32.468Z,17.87
2018-03-31T04:05:00.304Z,18.20
2018-03-31T04:07:28.276Z,17.53
2018-03-31T04:09:56.231Z,17.67
2018-03-31T04:12:24.225Z,17.67
2018-03-31T04:14:52.138Z,18.23
2018-03-31T04:17:19.938Z,18.57
2018-03-31T04:19:47.668Z,18.43
2018-03-31T04:22:15.259Z,19.83
2018-03-31T04:24:43.272Z,21.13
2018-03-31T04:27:11.185Z,21.80
2018-03-31T04:29:39.108Z,23.10
2018-03-31T04:32:06.769Z,21.60
2018-03-31T04:34:34.377Z,22.87
2018-03-31T04:37:02.168Z,22.17
2018-03-31T04:39:30.131Z,22.92
2018-03-31T04:41:57.731Z,22.63
2018-03-31T04:44:25.347Z,23.13
2018-03-31T04:46:53.292Z,22.60
2018-03-31T04:49:21.229Z,23.83
2018-03-31T04:51:49.048Z,23.73
2018-03-31T04:54:16.577Z,24.30
2018-03-31T04:56:44.176Z,23.45
2018-03-31T04:59:12.100Z,23.67
2018-03-31T05:01:40.060Z,23.10
2018-03-31T05:04:07.842Z,23.95
2018-03-31T05:06:35.705Z,24.27
2018-03-31T05:09:03.731Z,24.12
2018-03-31T05:11:33.500Z,23.50
2018-03-31T05:14:02.672Z,24.02
2018-03-31T05:16:32.288Z,25.30
2018-03-31T05:19:00.036Z,23.70
2018-03-31T05:21:27.999Z,22.60
2018-03-31T05:23:59.679Z,23.97
2018-03-31T05:26:27.490Z,22.37
2018-03-31T05:28:55.509Z,25.87
2018-03-31T05:31:23.388Z,23.23
2018-03-31T05:33:51.024Z,22.90
2018-03-31T05:36:18.511Z,24.20
2018-03-31T05:38:46.546Z,24.23
2018-03-31T05:41:14.274Z,24.50
2018-03-31T05:43:42.170Z,22.75
2018-03-31T05:46:10.183Z,24.10
2018-03-31T05:48:37.791Z,23.47
2018-03-31T05:51:05.381Z,22.67
2018-03-31T05:53:33.411Z,24.17
2018-03-31T05:56:01.343Z,23.67
2018-03-31T05:58:29.287Z,24.00
2018-03-31T06:00:57.307Z,22.58
2018-03-31T06:03:25.251Z,23.65
2018-03-31T06:05:53.168Z,24.00
2018-03-31T06:08:20.842Z,25.10
2018-03-31T06:10:48.476Z,23.63
2018-03-31T06:13:16.352Z,24.13
2018-03-31T06:15:44.282Z,23.80
2018-03-31T06:18:12.198Z,24.30
2018-03-31T06:20:40.106Z,24.30
2018-03-31T06:23:08.005Z,24.93
2018-03-31T06:25:35.615Z,24.23
2018-03-31T06:28:03.226Z,25.03
2018-03-31T06:30:31.184Z,24.15
2018-03-31T06:32:59.357Z,23.87
2018-03-31T06:35:27.227Z,24.70
2018-03-31T06:37:55.313Z,25.17
2018-03-31T06:40:23.144Z,24.63
2018-03-31T06:42:51.082Z,26.02
2018-03-31T06:45:19.061Z,25.02
2018-03-31T06:47:46.663Z,24.20
2018-03-31T06:50:14.461Z,23.37
2018-03-31T06:52:42.369Z,25.60
2018-03-31T06:55:10.340Z,25.13
2018-03-31T06:57:38.292Z,23.97
2018-03-31T07:00:06.328Z,23.63
2018-03-31T07:02:34.183Z,25.77
2018-03-31T07:05:02.103Z,24.95
2018-03-31T07:07:30.084Z,24.05
2018-03-31T07:09:58.220Z,22.90
2018-03-31T07:12:26.108Z,25.05
2018-03-31T07:14:54.010Z,29.48
2018-03-31T07:17:22.020Z,27.87
2018-03-31T07:19:51.408Z,27.42
2018-03-31T07:22:21.083Z,27.55
2018-03-31T07:24:50.723Z,26.62
2018-03-31T07:27:20.245Z,24.98
2018-03-31T07:29:48.219Z,26.90
2018-03-31T07:32:16.252Z,25.80
2018-03-31T07:34:44.168Z,28.02
2018-03-31T07:37:12.430Z,26.40
2018-03-31T07:39:40.383Z,25.83
2018-03-31T07:42:08.308Z,26.40
2018-03-31T07:44:36.379Z,25.27
2018-03-31T07:47:04.371Z,25.85
2018-03-31T07:49:33.207Z,26.17
2018-03-31T07:52:01.395Z,23.83
2018-03-31T07:54:29.512Z,24.23
2018-03-31T07:56:57.402Z,24.43
2018-03-31T07:59:25.336Z,23.07
2018-03-31T08:01:53.448Z,23.83
2018-03-31T08:04:21.296Z,23.00
2018-03-31T08:06:49.210Z,23.98
2018-03-31T08:09:17.177Z,24.63
2018-03-31T08:11:44.832Z,24.40
2018-03-31T08:14:12.959Z,22.43
2018-03-31T08:16:40.692Z,23.90
2018-03-31T08:19:08.528Z,24.20
2018-03-31T08:21:36.315Z,23.43
2018-03-31T08:24:04.313Z,23.73
2018-03-31T08:26:32.271Z,21.03
2018-03-31T08:29:00.001Z,22.90
2018-03-31T08:31:28.411Z,22.87
2018-03-31T08:33:56.274Z,23.87
2018-03-31T08:36:24.204Z,23.35
2018-03-31T08:38:52.236Z,22.85
2018-03-31T08:41:20.140Z,25.25
2018-03-31T08:43:47.880Z,24.77
2018-03-31T08:46:15.610Z,24.83
2018-03-31T08:48:43.301Z,24.27
2018-03-31T08:51:11.220Z,23.60
2018-03-31T08:53:39.228Z,24.92
2018-03-31T08:56:07.193Z,24.58
2018-03-31T08:58:35.159Z,24.65
2018-03-31T09:01:02.968Z,26.30
2018-03-31T09:03:30.887Z,27.53
2018-03-31T09:05:58.926Z,24.13
2018-03-31T09:08:26.730Z,24.40
2018-03-31T09:10:54.343Z,25.23
2018-03-31T09:13:22.300Z,23.63
2018-03-31T09:15:50.250Z,22.97
2018-03-31T09:18:18.181Z,24.20
2018-03-31T09:20:46.145Z,24.50
2018-03-31T09:23:14.208Z,24.50
2018-03-31T09:25:42.161Z,23.97
2018-03-31T09:28:10.073Z,24.00
2018-03-31T09:30:38.326Z,24.02
2018-03-31T09:33:06.660Z,26.60
2018-03-31T09:35:35.971Z,24.87
2018-03-31T09:38:05.440Z,26.83
2018-03-31T09:40:33.056Z,23.97
2018-03-31T09:43:00.959Z,22.70
2018-03-31T09:45:28.887Z,28.40
2018-03-31T09:47:56.489Z,25.67
2018-03-31T09:50:24.358Z,25.17
2018-03-31T09:52:52.651Z,25.60
2018-03-31T09:55:21.649Z,23.60
2018-03-31T09:57:49.348Z,24.70
2018-03-31T10:00:17.209Z,24.17
2018-03-31T10:02:44.826Z,24.93
2018-03-31T10:05:12.511Z,26.07
2018-03-31T10:07:40.358Z,26.83
2018-03-31T10:10:08.329Z,26.03
2018-03-31T10:12:36.216Z,27.30
2018-03-31T10:15:04.190Z,27.23
2018-03-31T10:17:32.094Z,26.45
2018-03-31T10:19:59.696Z,24.53
2018-03-31T10:22:27.406Z,26.73
2018-03-31T10:24:55.285Z,27.30
2018-03-31T10:27:23.196Z,27.73
2018-03-31T10:29:51.160Z,26.67
2018-03-31T10:32:18.768Z,30.53
2018-03-31T10:34:46.451Z,30.47
2018-03-31T10:37:14.624Z,30.40
2018-03-31T10:39:42.308Z,29.10
2018-03-31T10:42:10.253Z,29.87
2018-03-31T10:44:38.257Z,29.33
2018-03-31T10:47:06.177Z,26.98
2018-03-31T10:49:33.794Z,29.67
2018-03-31T10:52:01.475Z,29.63
2018-03-31T10:54:29.229Z,29.27
2018-03-31T10:56:57.142Z,27.70
2018-03-31T10:59:24.824Z,27.27
2018-03-31T11:01:52.463Z,29.87
2018-03-31T11:04:20.183Z,34.73
2018-03-31T11:06:48.211Z,52.05
2018-03-31T11:09:16.132Z,48.40
2018-03-31T11:11:44.056Z,52.40
2018-03-31T11:14:11.729Z,74.50
2018-03-31T11:16:39.360Z,66.27
2018-03-31T11:19:07.277Z,48.92
2018-03-31T11:21:35.319Z,43.17
2018-03-31T11:24:03.192Z,34.87
2018-03-31T11:26:31.101Z,32.25
2018-03-31T11:28:58.773Z,31.50
2018-03-31T11:31:26.487Z,31.80
2018-03-31T11:33:54.526Z,34.15
2018-03-31T11:36:22.520Z,34.75
2018-03-31T11:38:50.816Z,35.08
2018-03-31T11:41:20.036Z,32.17
2018-03-31T11:43:49.308Z,34.08
2018-03-31T11:46:20.029Z,33.65
2018-03-31T11:48:50.355Z,34.54
2018-03-31T11:51:17.948Z,38.37
2018-03-31T11:53:45.613Z,35.37
2018-03-31T11:56:13.450Z,38.10
2018-03-31T11:58:41.316Z,36.17
2018-03-31T12:01:09.273Z,35.60
2018-03-31T12:03:37.273Z,33.45
2018-03-31T12:11:52.046Z,32.40
2018-03-31T12:14:19.751Z,34.20
2018-03-31T12:16:47.389Z,32.43
2018-03-31T12:19:15.013Z,33.33
2018-03-31T12:21:42.728Z,33.97
2018-03-31T12:24:10.776Z,38.30
2018-03-31T12:26:38.376Z,36.42
2018-03-31T12:29:06.917Z,36.78
2018-03-31T12:31:37.081Z,33.44
2018-03-31T12:34:07.463Z,33.56
2018-03-31T12:36:36.936Z,33.55
2018-03-31T12:39:06.690Z,33.13
2018-03-31T12:41:36.401Z,34.95
2018-03-31T12:44:04.028Z,34.10
2018-03-31T12:46:31.936Z,33.33
2018-03-31T12:49:03.198Z,33.03
2018-03-31T12:51:30.833Z,34.53
2018-03-31T12:53:58.453Z,36.30
2018-03-31T12:56:26.782Z,38.87
2018-03-31T12:58:54.422Z,39.23
2018-03-31T13:01:22.398Z,38.73
2018-03-31T13:03:50.374Z,48.77
2018-03-31T13:06:18.344Z,46.90
2018-03-31T13:08:46.266Z,50.33
2018-03-31T13:11:14.347Z,51.60
2018-03-31T13:13:42.357Z,47.77
2018-03-31T13:16:10.295Z,42.33
2018-03-31T13:18:38.951Z,38.35
2018-03-31T13:21:06.623Z,37.73
2018-03-31T13:23:34.424Z,39.73
2018-03-31T13:26:02.394Z,40.07
2018-03-31T13:28:30.434Z,40.40
2018-03-31T13:30:58.348Z,41.53
2018-03-31T13:33:26.050Z,41.47
2018-03-31T13:35:53.742Z,46.50
2018-03-31T13:38:21.372Z,43.77
2018-03-31T13:40:49.381Z,44.67
2018-03-31T13:43:17.335Z,45.13
2018-03-31T13:45:45.277Z,44.17
2018-03-31T13:48:13.377Z,43.47
2018-03-31T13:50:41.366Z,40.57
2018-03-31T13:53:09.269Z,43.70
2018-03-31T13:55:37.277Z,43.30
2018-03-31T13:58:05.603Z,41.83
2018-03-31T14:00:33.346Z,46.30
2018-03-31T14:03:01.374Z,48.03
2018-03-31T14:05:29.450Z,47.57
2018-03-31T14:07:57.277Z,49.87
2018-03-31T14:10:26.137Z,41.50
2018-03-31T14:12:54.353Z,52.33
2018-03-31T14:15:22.296Z,49.17
2018-03-31T14:17:50.244Z,47.45
2018-03-31T14:20:18.268Z,46.58
2018-03-31T14:22:46.192Z,48.53
2018-03-31T14:25:14.140Z,47.55
2018-03-31T14:27:42.350Z,45.03
2018-03-31T14:30:10.298Z,47.83
2018-03-31T14:32:38.300Z,46.33
2018-03-31T14:35:06.325Z,43.20
2018-03-31T14:37:34.120Z,42.33
2018-03-31T14:40:01.784Z,44.00
2018-03-31T14:42:29.517Z,43.13
2018-03-31T14:44:57.574Z,38.33
2018-03-31T14:47:25.806Z,40.90
2018-03-31T14:49:55.020Z,40.28
2018-03-31T14:52:25.402Z,41.14
2018-03-31T14:54:54.801Z,40.45
2018-03-31T14:57:24.309Z,42.47
2018-03-31T14:59:51.958Z,39.13
2018-03-31T15:02:19.493Z,40.87
2018-03-31T15:04:47.181Z,45.20
2018-03-31T15:07:14.838Z,41.83
2018-03-31T15:09:42.532Z,41.50
2018-03-31T15:12:10.492Z,43.27
2018-03-31T15:14:38.526Z,40.77
2018-03-31T15:17:06.428Z,40.97
2018-03-31T15:19:34.472Z,38.97
2018-03-31T15:22:02.369Z,39.03
2018-03-31T15:24:30.519Z,40.03
2018-03-31T15:26:58.400Z,44.50
2018-03-31T15:29:26.324Z,44.93
2018-03-31T15:31:54.351Z,46.75
2018-03-31T15:34:22.305Z,45.15
2018-03-31T15:36:50.280Z,47.78
2018-03-31T15:39:18.405Z,48.28
2018-03-31T15:41:46.453Z,46.50
2018-03-31T15:44:14.292Z,45.47
2018-03-31T15:46:42.382Z,43.92
2018-03-31T15:49:10.386Z,43.10
2018-03-31T15:51:38.319Z,41.97
2018-03-31T15:54:06.394Z,45.77
2018-03-31T15:56:34.356Z,50.70
2018-03-31T15:59:02.300Z,54.03
2018-03-31T16:01:30.398Z,51.33
2018-03-31T16:03:58.369Z,50.20
2018-03-31T16:06:26.371Z,55.60
2018-03-31T16:08:55.051Z,54.60
2018-03-31T16:11:22.756Z,53.33
2018-03-31T16:13:50.441Z,53.13
2018-03-31T16:16:18.419Z,56.73
2018-03-31T16:18:46.468Z,53.65
2018-03-31T16:21:14.244Z,53.97
2018-03-31T16:23:42.227Z,51.13
2018-03-31T16:26:10.288Z,47.57
2018-03-31T16:28:38.303Z,51.80
2018-03-31T16:31:06.391Z,49.47
2018-03-31T16:33:34.284Z,46.47
2018-03-31T16:36:02.328Z,47.28
2018-03-31T16:38:30.394Z,46.00
2018-03-31T16:40:58.288Z,59.47
2018-03-31T16:43:26.281Z,55.57
2018-03-31T16:45:54.337Z,53.13
2018-03-31T16:48:22.299Z,49.53
2018-03-31T16:50:50.161Z,45.95
2018-03-31T16:53:17.877Z,58.63
2018-03-31T16:55:45.512Z,56.97
2018-03-31T16:58:13.564Z,47.60
2018-03-31T17:00:41.301Z,45.63
2018-03-31T17:03:09.708Z,52.67
2018-03-31T17:05:40.249Z,51.47
2018-03-31T17:08:09.729Z,53.22
2018-03-31T17:10:39.325Z,67.65
2018-03-31T17:13:06.947Z,61.80
2018-03-31T17:15:34.495Z,64.67
2018-03-31T17:18:02.368Z,56.47
2018-03-31T17:20:30.318Z,50.75
2018-03-31T17:22:58.424Z,50.28
2018-03-31T17:25:26.395Z,51.33
2018-03-31T17:27:54.729Z,50.47
2018-03-31T17:30:22.492Z,49.60
2018-03-31T17:32:50.400Z,62.60
2018-03-31T17:35:18.424Z,96.10
2018-03-31T17:37:46.552Z,41.53
2018-03-31T17:40:14.317Z,42.50
2018-03-31T17:42:42.283Z,47.28
2018-03-31T17:45:10.291Z,44.42
2018-03-31T17:47:38.245Z,48.30
2018-03-31T17:50:06.186Z,48.97
2018-03-31T17:52:34.197Z,48.20
2018-03-31T17:55:02.158Z,48.87
2018-03-31T17:57:29.802Z,59.13
2018-03-31T17:59:57.572Z,75.23
2018-03-31T18:02:25.436Z,62.83
2018-03-31T18:04:54.260Z,51.47
2018-03-31T18:07:22.124Z,49.08
2018-03-31T18:09:50.029Z,51.00
2018-03-31T18:12:17.662Z,44.93
2018-03-31T18:14:45.414Z,42.00
2018-03-31T18:17:13.308Z,40.07
2018-03-31T18:19:41.376Z,38.23
2018-03-31T18:22:09.317Z,38.57
2018-03-31T18:24:37.446Z,38.90
2018-03-31T18:27:05.369Z,38.27
2018-03-31T18:29:33.391Z,41.70
2018-03-31T18:32:01.029Z,40.50
2018-03-31T18:34:29.177Z,40.63
2018-03-31T18:36:57.609Z,42.87
2018-03-31T18:39:25.334Z,43.73
2018-03-31T18:41:53.591Z,42.93
2018-03-31T18:44:21.877Z,42.40
2018-03-31T18:46:49.530Z,41.50
2018-03-31T18:49:17.371Z,39.83
2018-03-31T18:51:45.297Z,37.87
2018-03-31T18:54:13.252Z,42.47
2018-03-31T18:56:41.289Z,49.50
2018-03-31T18:59:09.219Z,50.83
2018-03-31T19:01:37.168Z,52.15
2018-03-31T19:04:04.887Z,50.27
2018-03-31T19:06:32.534Z,52.03
2018-03-31T19:09:00.621Z,51.63
2018-03-31T19:11:28.383Z,51.55
2018-03-31T19:13:56.742Z,50.28
2018-03-31T19:16:31.444Z,50.67
2018-03-31T19:18:59.081Z,47.70
2018-03-31T19:21:29.447Z,47.04
2018-03-31T19:23:58.864Z,46.55
2018-03-31T19:26:28.328Z,50.05
2018-03-31T19:28:55.939Z,47.30
2018-03-31T19:31:24.164Z,46.20
2018-03-31T19:33:52.133Z,48.83
2018-03-31T19:36:19.833Z,50.60
2018-03-31T19:38:47.551Z,50.87
2018-03-31T19:41:15.414Z,54.00
2018-03-31T19:43:43.307Z,51.93
2018-03-31T19:46:11.313Z,54.83
2018-03-31T19:48:39.321Z,56.87
2018-03-31T19:51:07.327Z,58.20
2018-03-31T19:53:35.384Z,62.05
2018-03-31T19:56:03.322Z,61.80
2018-03-31T19:58:31.314Z,62.53
2018-03-31T20:00:59.376Z,63.80
2018-03-31T20:03:28.596Z,59.50
2018-03-31T20:06:04.376Z,60.90
2018-03-31T20:08:33.135Z,60.23
2018-03-31T20:11:00.855Z,61.93
2018-03-31T20:13:28.576Z,63.97
2018-03-31T20:15:56.312Z,61.30
2018-03-31T20:18:24.699Z,62.25
2018-03-31T20:20:52.421Z,62.03
2018-03-31T20:23:20.348Z,61.57
2018-03-31T20:25:48.319Z,61.07
2018-03-31T20:28:16.341Z,61.72
2018-03-31T20:30:44.566Z,60.30
2018-03-31T20:33:12.205Z,60.80
2018-03-31T20:35:40.382Z,60.60
2018-03-31T20:38:08.262Z,61.07
2018-03-31T20:40:36.566Z,60.38
2018-03-31T20:43:04.745Z,58.33
2018-03-31T20:45:32.727Z,58.65
2018-03-31T20:48:00.529Z,58.87
2018-03-31T20:50:28.346Z,59.20
2018-03-31T20:52:56.320Z,59.67
2018-03-31T20:55:24.468Z,60.43
2018-03-31T20:57:52.363Z,57.17
2018-03-31T21:00:20.267Z,59.63
2018-03-31T21:02:48.305Z,56.83
2018-03-31T21:05:16.335Z,56.90
2018-03-31T21:07:44.323Z,53.80
2018-03-31T21:10:12.335Z,54.70
2018-03-31T21:12:40.944Z,53.77
2018-03-31T21:15:08.570Z,51.17
2018-03-31T21:17:36.297Z,51.47
2018-03-31T21:20:04.229Z,51.07
2018-03-31T21:22:32.253Z,49.27
2018-03-31T21:25:00.142Z,49.50
2018-03-31T21:27:28.051Z,47.38
2018-03-31T21:29:56.009Z,47.80
2018-03-31T21:32:24.059Z,47.30
2018-03-31T21:34:52.024Z,47.26
2018-03-31T21:37:19.948Z,47.55
2018-03-31T21:39:49.628Z,47.88
2018-03-31T21:42:19.312Z,47.08
2018-03-31T21:44:48.751Z,46.97
2018-03-31T21:47:18.287Z,45.50
2018-03-31T21:49:46.319Z,43.70
2018-03-31T21:52:14.268Z,45.12
2018-03-31T21:54:42.252Z,43.13
2018-03-31T21:57:10.165Z,41.90
2018-03-31T21:59:37.802Z,40.80
2018-03-31T22:02:05.530Z,42.70
2018-03-31T22:04:33.355Z,39.67
2018-03-31T22:07:01.312Z,38.27
2018-03-31T22:09:29.663Z,38.80
2018-03-31T22:11:57.417Z,36.03
2018-03-31T22:14:30.699Z,35.20
2018-03-31T22:16:58.796Z,37.87
2018-03-31T22:19:26.457Z,35.53
2018-03-31T22:21:54.371Z,38.53
2018-03-31T22:24:22.680Z,36.97
2018-03-31T22:26:50.301Z,38.50
2018-03-31T22:29:18.349Z,38.80
2018-03-31T22:31:47.211Z,38.92
2018-03-31T22:34:15.748Z,39.88
2018-03-31T22:36:43.508Z,40.30
2018-03-31T22:39:11.311Z,39.50
2018-03-31T22:41:39.268Z,38.00
2018-03-31T22:44:07.345Z,37.17
2018-03-31T22:46:35.266Z,37.35
2018-03-31T22:49:03.187Z,36.58
2018-03-31T22:51:31.232Z,39.58
2018-03-31T22:53:59.168Z,38.42
2018-03-31T22:56:27.087Z,40.00
2018-03-31T22:58:54.759Z,37.90
2018-03-31T23:01:22.380Z,37.53
2018-03-31T23:03:50.224Z,36.73
2018-03-31T23:06:18.212Z,36.78
2018-03-31T23:08:46.140Z,35.47
2018-03-31T23:11:14.064Z,35.83
2018-03-31T23:13:41.756Z,35.63
2018-03-31T23:16:09.407Z,33.47
2018-03-31T23:18:37.220Z,32.77
2018-03-31T23:21:05.183Z,29.85
2018-03-31T23:23:33.075Z,29.12
2018-03-31T23:26:01.664Z,28.37
2018-03-31T23:28:29.740Z,27.60
2018-03-31T23:30:57.368Z,25.70
2018-03-31T23:33:25.244Z,26.27
2018-03-31T23:35:54.239Z,27.40
2018-03-31T23:38:22.214Z,25.47
2018-03-31T23:40:50.135Z,28.35
2018-03-31T23:43:18.091Z,29.55
2018-03-31T23:45:46.991Z,29.40
2018-03-31T23:48:14.918Z,27.85
2018-03-31T23:50:42.886Z,27.42
2018-03-31T23:53:10.926Z,26.02
2018-03-31T23:55:38.840Z,25.60
2018-03-31T23:58:06.811Z,27.15
